createdAt,value
2019-04-11T00:00:43.755Z,11.14
2019-04-11T00:03:13.768Z,10.99
2019-04-11T00:05:43.352Z,10.70
2019-04-11T00:08:12.747Z,10.47
2019-04-11T00:10:42.383Z,10.38
2019-04-11T00:13:21.123Z,10.49
2019-04-11T00:15:42.981Z,10.52
2019-04-11T00:18:12.413Z,10.12
2019-04-11T00:20:42.394Z,10.17
2019-04-11T00:23:12.275Z,10.24
2019-04-11T00:25:42.111Z,10.32
2019-04-11T00:28:11.563Z,10.42
2019-04-11T00:30:42.164Z,10.50
2019-04-11T00:33:11.603Z,10.20
2019-04-11T00:35:41.945Z,10.19
2019-04-11T00:38:11.830Z,10.14
2019-04-11T00:40:41.632Z,10.04
2019-04-11T00:43:11.480Z,10.78
2019-04-11T00:45:40.875Z,11.62
2019-04-11T00:48:11.267Z,10.93
2019-04-11T00:50:40.750Z,10.34
2019-04-11T00:53:10.135Z,10.38
2019-04-11T00:55:39.823Z,10.44
2019-04-11T00:58:09.668Z,10.36
2019-04-11T01:00:40.859Z,10.14
2019-04-11T01:03:10.290Z,9.99
2019-04-11T01:05:39.825Z,10.23
2019-04-11T01:08:09.280Z,10.27
2019-04-11T01:10:39.353Z,10.31
2019-04-11T01:13:09.212Z,9.90
2019-04-11T01:15:40.806Z,9.83
2019-04-11T01:18:11.891Z,9.65
2019-04-11T01:20:41.906Z,9.88
2019-04-11T01:23:11.269Z,9.78
2019-04-11T01:25:41.034Z,9.59
2019-04-11T01:28:12.206Z,9.80
2019-04-11T01:31:01.680Z,9.77
2019-04-11T01:33:31.762Z,10.10
2019-04-11T01:36:01.220Z,10.03
2019-04-11T01:38:32.505Z,10.38
2019-04-11T01:41:02.456Z,9.75
2019-04-11T01:43:32.928Z,10.19
2019-04-11T01:46:02.744Z,9.90
2019-04-11T01:48:46.037Z,10.45
2019-04-11T01:51:15.789Z,10.09
2019-04-11T01:53:46.901Z,9.91
2019-04-11T01:56:16.898Z,9.54
2019-04-11T01:58:46.868Z,9.93
2019-04-11T02:01:18.845Z,9.94
2019-04-11T02:03:49.765Z,10.07
2019-04-11T02:06:19.521Z,9.92
2019-04-11T02:08:49.325Z,9.90
2019-04-11T02:11:18.798Z,10.14
2019-04-11T02:13:48.465Z,10.07
2019-04-11T02:16:18.944Z,10.11
2019-04-11T02:18:49.861Z,9.93
2019-04-11T02:21:19.882Z,10.10
2019-04-11T02:24:03.911Z,9.80
2019-04-11T02:26:35.627Z,9.79
2019-04-11T02:29:05.536Z,9.98
2019-04-11T02:31:36.787Z,9.83
2019-04-11T02:34:08.380Z,10.14
2019-04-11T02:36:38.402Z,10.22
2019-04-11T02:39:16.703Z,9.81
2019-04-11T02:41:42.175Z,9.81
2019-04-11T02:44:29.158Z,10.33
2019-04-11T02:46:51.648Z,10.00
2019-04-11T02:49:14.958Z,9.97
2019-04-11T02:51:45.060Z,9.95
2019-04-11T02:54:15.975Z,9.85
2019-04-11T02:56:48.742Z,9.92
2019-04-11T02:59:19.630Z,9.81
2019-04-11T03:01:50.732Z,9.75
2019-04-11T03:04:22.789Z,9.43
2019-04-11T03:06:52.068Z,9.72
2019-04-11T03:09:24.095Z,9.57
2019-04-11T03:11:54.715Z,9.63
2019-04-11T03:14:25.134Z,10.01
2019-04-11T03:17:04.948Z,9.83
2019-04-11T03:19:42.756Z,9.82
2019-04-11T03:21:58.913Z,9.47
2019-04-11T03:24:29.443Z,10.15
2019-04-11T03:27:02.780Z,9.10
2019-04-11T03:29:33.111Z,9.35
2019-04-11T03:32:37.190Z,9.22
2019-04-11T03:37:26.130Z,9.12
2019-04-11T03:39:57.023Z,9.34
2019-04-11T03:42:21.947Z,9.78
2019-04-11T03:44:47.139Z,9.45
2019-04-11T03:47:31.093Z,9.35
2019-04-11T03:49:50.979Z,9.48
2019-04-11T03:52:17.065Z,9.47
2019-04-11T03:54:47.515Z,9.61
2019-04-11T03:57:18.017Z,9.37
2019-04-11T03:59:47.966Z,9.55
2019-04-11T04:02:22.483Z,10.02
2019-04-11T04:04:53.954Z,9.90
2019-04-11T04:07:24.257Z,10.09
2019-04-11T04:09:54.569Z,9.50
2019-04-11T04:12:24.564Z,9.33
2019-04-11T04:14:55.801Z,9.68
2019-04-11T04:17:45.562Z,9.88
2019-04-11T04:20:26.970Z,9.51
2019-04-11T04:22:58.554Z,9.48
2019-04-11T04:25:28.622Z,9.21
2019-04-11T04:27:58.985Z,9.15
2019-04-11T04:30:29.831Z,9.04
2019-04-11T04:33:00.576Z,9.41
2019-04-11T04:35:31.700Z,9.43
2019-04-11T04:38:03.039Z,9.52
2019-04-11T04:40:49.804Z,9.40
2019-04-11T04:43:07.464Z,9.19
2019-04-11T04:45:55.004Z,8.73
2019-04-11T04:48:11.444Z,8.88
2019-04-11T04:50:39.213Z,8.85
2019-04-11T04:53:09.912Z,9.09
2019-04-11T04:55:39.261Z,9.25
2019-04-11T04:58:09.141Z,9.07
2019-04-11T05:00:39.652Z,9.05
2019-04-11T05:03:10.509Z,8.98
2019-04-11T05:05:39.904Z,9.11
2019-04-11T05:08:10.761Z,9.19
2019-04-11T05:10:41.306Z,9.47
2019-04-11T05:13:11.926Z,9.16
2019-04-11T05:15:43.443Z,9.06
2019-04-11T05:18:15.601Z,9.33
2019-04-11T05:20:44.270Z,9.03
2019-04-11T05:23:14.059Z,9.02
2019-04-11T05:25:44.593Z,8.79
2019-04-11T05:28:14.069Z,8.96
2019-04-11T05:30:43.475Z,8.86
2019-04-11T05:33:13.604Z,9.35
2019-04-11T05:35:43.776Z,9.52
2019-04-11T05:38:13.533Z,9.36
2019-04-11T05:40:42.992Z,9.62
2019-04-11T05:43:13.529Z,9.59
2019-04-11T05:45:43.010Z,9.53
2019-04-11T05:48:30.589Z,9.40
2019-04-11T05:51:00.549Z,9.31
2019-04-11T05:53:32.842Z,9.43
2019-04-11T05:56:03.653Z,9.31
2019-04-11T05:58:34.782Z,9.58
2019-04-11T06:01:11.024Z,9.62
2019-04-11T06:03:43.254Z,9.08
2019-04-11T06:06:16.370Z,8.94
2019-04-11T06:08:46.240Z,8.90
2019-04-11T06:11:24.189Z,8.91
2019-04-11T06:13:56.515Z,9.53
2019-04-11T06:16:36.099Z,9.56
2019-04-11T06:19:01.347Z,8.96
2019-04-11T06:21:33.612Z,9.18
2019-04-11T06:24:21.073Z,9.23
2019-04-11T06:27:04.154Z,9.03
2019-04-11T06:29:51.353Z,8.73
2019-04-11T06:32:23.492Z,8.76
2019-04-11T06:35:11.553Z,8.79
2019-04-11T06:38:00.728Z,8.85
2019-04-11T06:40:37.700Z,8.51
2019-04-11T06:43:25.743Z,8.69
2019-04-11T06:46:13.154Z,8.92
2019-04-11T06:52:08.556Z,8.50
2019-04-11T06:54:49.544Z,9.07
2019-04-11T06:57:26.323Z,9.11
2019-04-11T06:59:56.661Z,9.02
2019-04-11T07:02:27.984Z,9.45
2019-04-11T07:05:00.204Z,9.16
2019-04-11T07:07:32.268Z,9.67
2019-04-11T07:10:06.302Z,9.09
2019-04-11T07:12:38.513Z,8.59
2019-04-11T07:15:19.527Z,9.15
2019-04-11T07:18:07.615Z,9.19
2019-04-11T07:20:54.215Z,8.75
2019-04-11T07:23:44.220Z,8.68
2019-04-11T07:26:25.122Z,8.88
2019-04-11T07:28:56.607Z,9.21
2019-04-11T07:31:41.012Z,9.36
2019-04-11T07:34:32.783Z,9.39
2019-04-11T07:37:17.610Z,9.29
2019-04-11T07:40:00.855Z,9.47
2019-04-11T07:42:49.718Z,9.88
2019-04-11T07:45:23.018Z,9.39
2019-04-11T07:47:55.222Z,9.63
2019-04-11T07:50:26.094Z,9.75
2019-04-11T07:53:03.308Z,10.02
2019-04-11T07:55:32.690Z,9.93
2019-04-11T07:58:04.340Z,10.21
2019-04-11T08:00:48.896Z,9.75
2019-04-11T08:03:23.480Z,9.01
2019-04-11T08:06:09.482Z,9.06
2019-04-11T08:08:56.480Z,9.00
2019-04-11T08:11:31.658Z,9.04
2019-04-11T08:14:08.523Z,8.79
2019-04-11T08:16:39.545Z,9.42
2019-04-11T08:19:15.291Z,9.54
2019-04-11T08:22:03.902Z,9.13
2019-04-11T08:24:34.933Z,9.74
2019-04-11T08:27:06.969Z,9.48
2019-04-11T08:29:38.207Z,9.15
2019-04-11T08:32:26.069Z,8.82
2019-04-11T08:35:13.074Z,9.43
2019-04-11T08:37:50.110Z,9.08
2019-04-11T08:40:21.862Z,9.39
2019-04-11T08:43:08.939Z,9.57
2019-04-11T08:45:40.352Z,9.28
2019-04-11T08:48:11.476Z,9.17
2019-04-11T08:50:45.228Z,9.63
2019-04-11T08:53:18.884Z,9.56
2019-04-11T08:55:58.864Z,9.86
2019-04-11T08:58:38.478Z,9.13
2019-04-11T09:01:09.695Z,9.14
2019-04-11T09:03:42.007Z,8.44
2019-04-11T09:06:12.599Z,8.44
2019-04-11T09:08:59.739Z,8.97
2019-04-11T09:11:36.647Z,9.13
2019-04-11T09:14:15.822Z,9.19
2019-04-11T09:16:47.906Z,9.35
2019-04-11T09:19:19.001Z,9.62
2019-04-11T09:22:06.804Z,9.38
2019-04-11T09:24:43.865Z,9.76
2019-04-11T09:27:31.334Z,9.69
2019-04-11T09:30:19.036Z,8.84
2019-04-11T09:32:50.734Z,8.72
2019-04-11T09:35:38.024Z,8.78
2019-04-11T09:38:12.051Z,8.84
2019-04-11T09:40:50.145Z,9.45
2019-04-11T09:43:22.132Z,9.77
2019-04-11T09:46:10.276Z,9.52
2019-04-11T09:48:56.579Z,8.97
2019-04-11T09:51:30.296Z,8.81
2019-04-11T09:54:13.372Z,8.53
2019-04-11T09:57:00.544Z,8.79
2019-04-11T09:59:43.819Z,8.98
2019-04-11T10:02:18.805Z,8.66
2019-04-11T10:04:50.240Z,8.47
2019-04-11T10:07:28.272Z,8.81
2019-04-11T10:10:04.800Z,9.05
2019-04-11T10:18:50.053Z,8.57
2019-04-11T10:21:21.268Z,8.69
2019-04-11T10:24:09.438Z,9.15
2019-04-11T10:29:58.984Z,9.14
2019-04-11T10:32:32.995Z,8.94
2019-04-11T10:35:14.261Z,9.34
2019-04-11T10:37:45.693Z,9.66
2019-04-11T10:40:21.211Z,9.23
2019-04-11T10:42:51.793Z,8.82
2019-04-11T10:45:23.181Z,9.14
2019-04-11T10:47:54.332Z,9.13
2019-04-11T10:50:42.374Z,8.76
2019-04-11T10:53:13.024Z,8.83
2019-04-11T10:56:00.048Z,9.11
2019-04-11T10:58:31.111Z,9.53
2019-04-11T11:01:05.053Z,9.64
2019-04-11T11:03:43.049Z,9.39
2019-04-11T11:06:15.570Z,9.77
2019-04-11T11:08:53.406Z,9.33
2019-04-11T11:11:26.834Z,9.22
2019-04-11T11:14:10.251Z,9.13
2019-04-11T11:16:54.782Z,9.07
2019-04-11T11:19:57.188Z,9.31
2019-04-11T11:22:17.403Z,9.77
2019-04-11T11:24:52.453Z,8.99
2019-04-11T11:27:24.398Z,8.70
2019-04-11T11:29:56.197Z,8.81
2019-04-11T11:32:25.278Z,9.12
2019-04-11T11:34:56.925Z,9.44
2019-04-11T11:37:35.326Z,8.97
2019-04-11T11:40:26.157Z,8.85
2019-04-11T11:43:12.157Z,8.98
2019-04-11T11:45:49.150Z,9.33
2019-04-11T11:48:27.963Z,8.16
2019-04-11T11:50:59.194Z,8.69
2019-04-11T11:53:31.305Z,8.37
2019-04-11T11:56:02.401Z,8.40
2019-04-11T11:58:43.543Z,7.84
2019-04-11T12:01:15.695Z,8.44
2019-04-11T12:03:47.043Z,7.88
2019-04-11T12:06:22.324Z,7.61
2019-04-11T12:08:50.941Z,8.04
2019-04-11T12:11:22.189Z,8.38
2019-04-11T12:14:09.499Z,7.42
2019-04-11T12:16:59.631Z,7.74
2019-04-11T12:19:28.994Z,7.87
2019-04-11T12:22:00.419Z,7.89
2019-04-11T12:24:40.614Z,7.91
2019-04-11T12:27:14.451Z,8.09
2019-04-11T12:30:05.890Z,7.94
2019-04-11T12:32:36.798Z,7.95
2019-04-11T12:35:09.230Z,8.10
2019-04-11T12:37:56.353Z,7.58
2019-04-11T12:40:43.462Z,7.61
2019-04-11T12:43:13.615Z,7.52
2019-04-11T12:45:47.098Z,7.70
2019-04-11T12:48:17.041Z,7.54
2019-04-11T12:51:01.032Z,7.51
2019-04-11T12:53:30.423Z,7.18
2019-04-11T12:56:17.596Z,7.22
2019-04-11T12:58:48.624Z,7.56
2019-04-11T13:01:26.049Z,7.94
2019-04-11T13:04:03.322Z,7.75
2019-04-11T13:06:40.812Z,8.10
2019-04-11T13:09:12.246Z,7.64
2019-04-11T13:11:43.266Z,7.79
2019-04-11T13:14:14.376Z,7.80
2019-04-11T13:16:45.405Z,7.69
2019-04-11T13:19:32.820Z,7.91
2019-04-11T13:22:03.925Z,8.15
2019-04-11T13:24:47.028Z,7.66
2019-04-11T13:27:18.134Z,7.60
2019-04-11T13:30:05.389Z,7.25
2019-04-11T13:32:43.446Z,7.70
2019-04-11T13:35:31.300Z,7.89
2019-04-11T13:38:05.238Z,8.03
2019-04-11T13:40:39.125Z,7.82
2019-04-11T13:43:16.150Z,7.58
2019-04-11T13:48:47.292Z,7.81
2019-04-11T13:51:24.384Z,7.58
2019-04-11T13:54:13.538Z,7.43
2019-04-11T13:57:00.975Z,7.81
2019-04-11T13:59:34.439Z,7.36
2019-04-11T14:02:07.657Z,7.49
2019-04-11T14:04:54.952Z,8.05
2019-04-11T14:07:26.865Z,7.91
2019-04-11T14:09:59.078Z,8.06
2019-04-11T14:12:33.475Z,7.73
2019-04-11T14:15:07.010Z,7.78
2019-04-11T14:20:29.830Z,7.21
2019-04-11T14:22:58.585Z,7.58
2019-04-11T14:25:46.077Z,7.35
2019-04-11T14:28:19.771Z,7.36
2019-04-11T14:30:52.527Z,7.63
2019-04-11T14:33:24.256Z,7.47
2019-04-11T14:38:52.282Z,7.75
2019-04-11T14:41:26.518Z,7.31
2019-04-11T14:44:00.234Z,7.57
2019-04-11T14:46:47.586Z,7.55
2019-04-11T14:49:16.969Z,7.69
2019-04-11T14:52:03.133Z,7.41
2019-04-11T14:54:43.130Z,7.60
2019-04-11T15:00:24.231Z,7.54
2019-04-11T15:05:59.992Z,7.41
2019-04-11T15:08:33.847Z,7.18
2019-04-11T15:11:21.443Z,7.22
2019-04-11T15:13:53.539Z,7.34
2019-04-11T15:16:40.697Z,7.43
2019-04-11T15:19:10.083Z,7.30
2019-04-11T15:21:41.110Z,7.25
2019-04-11T15:24:11.154Z,7.34
2019-04-11T15:26:48.126Z,7.42
2019-04-11T15:29:19.082Z,7.42
2019-04-11T15:31:50.102Z,7.41
2019-04-11T15:34:36.182Z,7.81
2019-04-11T15:37:15.989Z,7.77
2019-04-11T15:39:59.112Z,8.20
2019-04-11T15:42:48.166Z,8.03
2019-04-11T15:45:28.204Z,7.74
2019-04-11T15:48:17.798Z,8.15
2019-04-11T15:51:06.465Z,8.12
2019-04-11T15:53:37.568Z,7.56
2019-04-11T15:56:25.250Z,7.53
2019-04-11T15:59:07.977Z,7.87
2019-04-11T16:01:51.294Z,7.50
2019-04-11T16:04:31.055Z,7.40
2019-04-11T16:07:12.190Z,7.47
2019-04-11T16:09:44.088Z,7.68
2019-04-11T16:12:30.379Z,7.65
2019-04-11T16:15:17.925Z,7.67
2019-04-11T16:18:02.008Z,7.82
2019-04-11T16:20:31.384Z,7.95
2019-04-11T16:23:18.439Z,7.86
2019-04-11T16:25:49.455Z,7.95
2019-04-11T16:28:20.557Z,7.40
2019-04-11T16:30:54.526Z,7.82
2019-04-11T16:33:34.715Z,7.82
2019-04-11T16:36:14.946Z,7.89
2019-04-11T16:38:51.650Z,7.38
2019-04-11T16:41:38.793Z,7.68
2019-04-11T16:44:18.281Z,7.40
2019-04-11T16:47:04.520Z,7.97
2019-04-11T16:49:33.931Z,7.86
2019-04-11T16:52:07.368Z,7.71
2019-04-11T16:54:34.425Z,7.55
2019-04-11T16:57:03.778Z,7.64
2019-04-11T16:59:35.243Z,7.70
2019-04-11T17:02:09.924Z,7.51
2019-04-11T17:04:39.432Z,7.67
2019-04-11T17:07:13.179Z,7.52
2019-04-11T17:09:44.778Z,7.54
2019-04-11T17:12:14.174Z,7.62
2019-04-11T17:14:43.625Z,7.71
2019-04-11T17:17:15.145Z,7.69
2019-04-11T17:19:45.016Z,7.65
2019-04-11T17:22:16.852Z,7.99
2019-04-11T17:24:47.811Z,8.11
2019-04-11T17:27:16.728Z,7.81
2019-04-11T17:29:46.145Z,7.33
2019-04-11T17:32:15.524Z,7.77
2019-04-11T17:34:45.620Z,7.93
2019-04-11T17:37:15.897Z,7.41
2019-04-11T17:39:46.131Z,7.37
2019-04-11T17:42:16.571Z,7.47
2019-04-11T17:44:46.683Z,7.48
2019-04-11T17:47:16.874Z,7.89
2019-04-11T17:49:47.173Z,7.88
2019-04-11T17:52:17.535Z,7.59
2019-04-11T17:54:47.666Z,7.79
2019-04-11T17:57:18.317Z,7.77
2019-04-11T17:59:48.808Z,7.68
2019-04-11T18:02:19.273Z,7.70
2019-04-11T18:04:48.675Z,8.13
2019-04-11T18:07:19.022Z,8.39
2019-04-11T18:09:51.203Z,8.06
2019-04-11T18:12:20.591Z,8.04
2019-04-11T18:14:49.981Z,8.07
2019-04-11T18:17:20.399Z,8.26
2019-04-11T18:19:50.521Z,8.34
2019-04-11T18:22:20.724Z,7.65
2019-04-11T18:24:50.955Z,7.86
2019-04-11T18:27:21.865Z,8.04
2019-04-11T18:29:52.965Z,8.06
2019-04-11T18:32:24.921Z,7.97
2019-04-11T18:34:54.299Z,8.10
2019-04-11T18:37:23.681Z,7.92
2019-04-11T18:39:53.087Z,8.20
2019-04-11T18:42:22.727Z,8.00
2019-04-11T18:44:52.962Z,7.96
2019-04-11T18:47:23.506Z,7.74
2019-04-11T18:49:55.441Z,8.39
2019-04-11T18:52:26.515Z,8.02
2019-04-11T18:54:56.911Z,8.06
2019-04-11T18:57:26.639Z,8.31
2019-04-11T18:59:56.015Z,8.34
2019-04-11T19:02:26.573Z,8.20
2019-04-11T19:04:56.877Z,8.16
2019-04-11T19:07:27.947Z,8.47
2019-04-11T19:09:57.407Z,8.37
2019-04-11T19:12:26.811Z,8.42
2019-04-11T19:14:56.212Z,7.97
2019-04-11T19:17:26.260Z,8.23
2019-04-11T19:20:02.016Z,7.99
2019-04-11T19:22:37.583Z,8.22
2019-04-11T19:25:11.818Z,8.26
2019-04-11T19:27:39.479Z,8.23
2019-04-11T19:30:18.952Z,8.19
2019-04-11T19:32:52.949Z,8.18
2019-04-11T19:35:23.928Z,8.13
2019-04-11T19:37:53.501Z,8.66
2019-04-11T19:40:22.899Z,8.40
2019-04-11T19:42:52.288Z,8.39
2019-04-11T19:45:21.674Z,8.25
2019-04-11T19:47:58.128Z,8.35
2019-04-11T19:50:29.194Z,8.09
2019-04-11T19:53:02.648Z,8.20
2019-04-11T19:55:48.030Z,8.49
2019-04-11T19:58:19.609Z,8.56
2019-04-11T20:00:52.892Z,8.32
2019-04-11T20:03:21.835Z,8.62
2019-04-11T20:05:51.325Z,8.45
2019-04-11T20:08:20.714Z,8.58
2019-04-11T20:10:50.109Z,8.54
2019-04-11T20:13:19.554Z,8.05
2019-04-11T20:15:50.534Z,8.43
2019-04-11T20:18:22.699Z,8.69
2019-04-11T20:20:52.294Z,8.62
2019-04-11T20:23:21.691Z,8.19
2019-04-11T20:25:51.089Z,8.34
2019-04-11T20:28:20.883Z,7.85
2019-04-11T20:30:53.415Z,7.97
2019-04-11T20:33:27.356Z,8.25
2019-04-11T20:35:53.885Z,8.60
2019-04-11T20:38:23.286Z,8.61
2019-04-11T20:40:53.274Z,8.40
2019-04-11T20:43:25.415Z,8.37
2019-04-11T20:45:54.170Z,8.11
2019-04-11T20:48:23.523Z,8.03
2019-04-11T20:50:52.907Z,8.55
2019-04-11T20:53:22.297Z,8.47
2019-04-11T20:55:51.831Z,8.10
2019-04-11T20:58:27.336Z,8.40
2019-04-11T21:00:55.648Z,8.25
2019-04-11T21:03:24.302Z,8.36
2019-04-11T21:05:53.690Z,8.54
2019-04-11T21:08:24.143Z,8.41
2019-04-11T21:10:53.531Z,8.18
2019-04-11T21:13:22.920Z,8.50
2019-04-11T21:15:52.300Z,8.60
2019-04-11T21:18:25.659Z,8.48
2019-04-11T21:20:55.251Z,7.94
2019-04-11T21:23:24.928Z,8.21
2019-04-11T21:25:58.864Z,8.68
2019-04-11T21:28:27.893Z,7.97
2019-04-11T21:31:00.138Z,7.94
2019-04-11T21:33:29.221Z,8.33
2019-04-11T21:36:01.332Z,7.74
2019-04-11T21:38:30.883Z,8.02
2019-04-11T21:41:00.882Z,7.95
2019-04-11T21:43:31.224Z,8.26
2019-04-11T21:46:00.625Z,8.11
2019-04-11T21:48:30.017Z,8.18
2019-04-11T21:50:59.412Z,7.56
2019-04-11T21:53:36.663Z,7.80
2019-04-11T21:56:02.297Z,7.98
2019-04-11T21:58:31.686Z,7.91
2019-04-11T22:01:04.328Z,7.95
2019-04-11T22:03:33.843Z,8.04
2019-04-11T22:06:03.445Z,8.21
2019-04-11T22:08:34.459Z,8.16
2019-04-11T22:11:04.863Z,8.75
2019-04-11T22:13:34.426Z,8.24
2019-04-11T22:16:03.875Z,8.35
2019-04-11T22:18:33.265Z,8.34
2019-04-11T22:21:02.648Z,8.01
2019-04-11T22:23:32.298Z,8.58
2019-04-11T22:26:01.676Z,8.23
2019-04-11T22:28:31.067Z,8.75
2019-04-11T22:31:00.456Z,7.87
2019-04-11T22:33:34.596Z,8.21
2019-04-11T22:36:04.152Z,8.35
2019-04-11T22:38:33.556Z,8.05
2019-04-11T22:41:02.947Z,8.08
2019-04-11T22:43:32.682Z,8.32
2019-04-11T22:46:03.130Z,7.90
2019-04-11T22:48:32.507Z,8.22
2019-04-11T22:51:01.902Z,8.52
2019-04-11T22:53:31.285Z,7.83
2019-04-11T22:56:01.599Z,8.09
2019-04-11T22:58:30.983Z,7.90
2019-04-11T23:01:00.367Z,7.93
2019-04-11T23:03:37.112Z,8.29
2019-04-11T23:06:06.490Z,7.86
2019-04-11T23:08:35.923Z,8.22
2019-04-11T23:11:07.293Z,8.34
2019-04-11T23:13:36.754Z,8.35
2019-04-11T23:16:06.135Z,7.86
2019-04-11T23:18:35.835Z,7.99
2019-04-11T23:21:05.218Z,7.93
2019-04-11T23:23:34.676Z,7.74
2019-04-11T23:26:04.473Z,8.02
2019-04-11T23:28:33.871Z,7.75
2019-04-11T23:31:03.265Z,8.07
2019-04-11T23:33:32.660Z,7.98
2019-04-11T23:36:02.054Z,8.26
2019-04-11T23:38:31.446Z,8.35
2019-04-11T23:41:01.815Z,7.90
2019-04-11T23:43:31.195Z,8.16
2019-04-11T23:46:00.591Z,8.06
2019-04-11T23:48:29.974Z,8.25
2019-04-11T23:50:59.632Z,8.49
2019-04-11T23:53:29.663Z,8.01
2019-04-11T23:56:00.723Z,7.53
2019-04-11T23:58:32.072Z,7.67
